Tabor, Iowa
Current Conditions -  °F | °C
As of 3:35 PM on Thursday 23 Oct 2014 (Local Time) from KPMV Reporting Station
Clear Clear  
Wind Chill: 70°   Ceiling: Unl
Heat Index: 70°   Visibility: 10mi
Dew Point: 50°   Wind: 0mph
Humidity: 48%   Direction: NA
Pressure: 30.02"   Gusts: NA
Location:  40.9°N, 95.67°W
Report Text: KPMV 232035Z AUTO 00000KT 10SM CLR 21/10 A3002 RMK AO2 T02130099
Loading
Personal Weather Stations






























Interactive Weather Map
Tropical Storm Tracking
New forecast layout! Learn more

10-Day Weather Forecast

Advertisements
Track Severe Weather on mobile